Time;durP1;ratioP1;P1;durP2;ratioP2;P2;SDS_P1;SDS_P2;PMS_P1;PMS_P2;Temp;Humidity;BMP_temperature;BMP_pressure;BME280_temperature;BME280_humidity;BME280_pressure;Samples;Min_cycle;Max_cycle;Signal;HPM_P1;HPM_P2
2023/12/09 00:00:53;;;;;;;28.25;12.40;;;;;;;2.73;100.00;100353.75;5155392;28;20030;-75
2023/12/09 00:03:23;;;;;;;26.02;11.85;;;;;;;2.81;100.00;100349.38;5150390;28;20524;-72
2023/12/09 00:05:54;;;;;;;28.00;11.88;;;;;;;2.81;100.00;100349.38;5155031;28;20113;-75
2023/12/09 00:08:24;;;;;;;23.50;11.48;;;;;;;2.83;100.00;100351.09;5156073;28;20547;-74
2023/12/09 00:10:54;;;;;;;30.33;12.82;;;;;;;2.78;100.00;100351.97;5155942;28;20547;-75
2023/12/09 00:13:25;;;;;;;26.83;12.15;;;;;;;2.77;100.00;100355.44;5155049;28;20026;-74
2023/12/09 00:15:55;;;;;;;25.75;12.20;;;;;;;2.71;100.00;100363.22;5156145;28;20041;-76
2023/12/09 00:18:25;;;;;;;30.25;12.55;;;;;;;2.77;100.00;100355.44;5146750;28;20041;-75
2023/12/09 00:20:56;;;;;;;25.65;11.88;;;;;;;2.84;100.00;100357.94;5157004;28;20053;-74
2023/12/09 00:23:26;;;;;;;25.10;12.55;;;;;;;2.78;100.00;100346.81;5156163;28;20415;-72
2023/12/09 00:25:56;;;;;;;28.25;11.90;;;;;;;2.87;100.00;100351.91;5157200;28;20986;-76
2023/12/09 00:28:26;;;;;;;27.05;12.43;;;;;;;2.90;100.00;100349.31;5142742;28;20026;-76
2023/12/09 00:30:57;;;;;;;26.25;12.40;;;;;;;2.90;100.00;100351.88;5157017;28;20041;-76
2023/12/09 00:33:27;;;;;;;26.40;12.13;;;;;;;2.88;100.00;100353.63;5155869;28;20086;-74
2023/12/09 00:35:57;;;;;;;30.63;12.10;;;;;;;2.83;100.00;100356.25;5144452;28;20511;-76
2023/12/09 00:38:27;;;;;;;21.92;11.23;;;;;;;2.76;100.00;100353.72;5155670;28;20355;-75
2023/12/09 00:40:58;;;;;;;26.08;12.18;;;;;;;2.69;100.00;100359.81;5155992;28;20518;-76
2023/12/09 00:43:28;;;;;;;30.73;12.57;;;;;;;2.70;100.00;100364.94;5155009;28;20057;-75
2023/12/09 00:45:58;;;;;;;29.98;12.13;;;;;;;2.64;100.00;100353.81;5145008;28;20426;-76
2023/12/09 00:48:29;;;;;;;27.90;12.40;;;;;;;2.63;100.00;100352.97;5150187;28;20042;-76
2023/12/09 00:50:59;;;;;;;26.02;12.30;;;;;;;2.63;100.00;100362.41;5134141;28;20629;-72
2023/12/09 00:53:29;;;;;;;29.40;13.02;;;;;;;2.64;100.00;100361.53;5153469;28;20327;-75
2023/12/09 00:55:59;;;;;;;28.08;12.40;;;;;;;2.66;100.00;100357.25;5155360;28;20427;-75
2023/12/09 00:58:30;;;;;;;30.38;13.10;;;;;;;2.74;100.00;100358.03;5153939;28;20086;-72
2023/12/09 01:01:00;;;;;;;31.38;12.88;;;;;;;2.80;100.00;100355.41;5173487;22;20056;-71
2023/12/09 01:03:30;;;;;;;27.00;12.73;;;;;;;2.74;100.00;100352.88;5161336;28;20055;-71
2023/12/09 01:06:01;;;;;;;26.48;12.27;;;;;;;2.69;100.00;100357.22;5162331;28;20037;-71
2023/12/09 01:08:31;;;;;;;27.45;12.68;;;;;;;2.71;100.00;100365.81;5166806;28;20193;-71
2023/12/09 01:11:01;;;;;;;26.20;12.02;;;;;;;2.67;100.00;100358.97;5163222;28;20483;-72
2023/12/09 01:13:31;;;;;;;25.42;12.27;;;;;;;2.68;100.00;100371.00;5153919;28;20029;-71
2023/12/09 01:16:03;;;;;;;27.38;11.98;;;;;;;2.79;100.00;100375.19;5161556;28;20037;-71
2023/12/09 01:18:33;;;;;;;27.15;11.68;;;;;;;2.75;100.00;100368.38;5165804;28;20043;-72
2023/12/09 01:21:03;;;;;;;25.88;12.00;;;;;;;2.81;100.00;100359.69;5165305;28;20030;-72
2023/12/09 01:23:34;;;;;;;26.73;11.63;;;;;;;2.81;100.00;100354.53;5163832;28;20463;-72
2023/12/09 01:26:04;;;;;;;27.05;11.93;;;;;;;2.77;100.00;100355.44;5160540;28;20026;-70
2023/12/09 01:28:34;;;;;;;26.17;11.43;;;;;;;2.90;100.00;100351.88;5156787;28;20022;-72
2023/12/09 01:31:05;;;;;;;30.17;11.80;;;;;;;3.01;100.00;100350.91;5164940;28;20030;-72
2023/12/09 01:33:37;;;;;;;22.55;10.63;;;;;;;3.25;100.00;100355.88;5165533;28;20172;-71
2023/12/09 01:36:08;;;;;;;33.13;10.90;;;;;;;3.36;100.00;100358.34;5166301;28;20036;-72
2023/12/09 01:38:38;;;;;;;27.75;11.13;;;;;;;3.40;100.00;100354.84;5164209;28;20034;-71
2023/12/09 01:41:09;;;;;;;26.83;11.52;;;;;;;3.45;100.00;100359.09;5164424;28;20084;-72
2023/12/09 01:43:39;;;;;;;24.40;11.10;;;;;;;3.52;100.00;100354.72;5165668;28;20041;-71
2023/12/09 01:46:10;;;;;;;29.85;10.05;;;;;;;3.55;100.00;100359.84;5163161;28;20033;-72
2023/12/09 01:48:41;;;;;;;31.63;11.38;;;;;;;3.58;100.00;100361.53;5164444;28;20038;-71
2023/12/09 01:51:14;;;;;;;25.42;11.00;;;;;;;3.60;100.00;100364.94;5163244;28;20523;-72
2023/12/09 01:53:44;;;;;;;25.90;10.38;;;;;;;3.61;100.00;100369.25;5159229;28;20045;-70
2023/12/09 01:56:17;;;;;;;27.85;10.65;;;;;;;3.64;100.00;100363.19;5154092;28;20240;-71
2023/12/09 01:58:49;;;;;;;23.88;10.30;;;;;;;3.61;100.00;100353.75;5154201;28;20025;-71
2023/12/09 02:01:19;;;;;;;28.00;9.90;;;;;;;3.70;100.00;100351.06;5164948;28;20492;-71
2023/12/09 02:03:50;;;;;;;23.90;9.20;;;;;;;3.76;100.00;100350.97;5162600;28;20057;-71
2023/12/09 02:06:21;;;;;;;19.40;9.18;;;;;;;3.80;100.00;100344.06;5164493;28;20064;-72
2023/12/09 02:08:51;;;;;;;20.13;8.40;;;;;;;3.74;100.00;100352.72;5164033;28;20057;-72
2023/12/09 02:11:58;;;;;;;22.48;9.30;;;;;;;3.73;100.00;100340.69;5165481;28;20029;-72
2023/12/09 02:14:58;;;;;;;21.40;8.73;;;;;;;3.84;100.00;100333.66;5163694;28;20033;-71
2023/12/09 02:17:35;;;;;;;17.35;8.25;;;;;;;3.95;100.00;100336.94;5164247;28;20535;-71
2023/12/09 02:20:08;;;;;;;21.60;9.02;;;;;;;3.92;100.00;100342.16;5163408;28;20084;-71
2023/12/09 02:22:38;;;;;;;18.83;8.35;;;;;;;3.95;100.00;100342.13;5164004;28;20028;-72
2023/12/09 02:25:08;;;;;;;19.85;8.48;;;;;;;3.91;100.00;100340.47;5164117;28;20034;-72
2023/12/09 02:27:47;;;;;;;19.52;8.57;;;;;;;3.85;100.00;100353.47;5166030;28;20784;-71
2023/12/09 02:30:30;;;;;;;23.27;8.68;;;;;;;3.84;100.00;100351.75;5160709;28;20620;-72
2023/12/09 02:33:03;;;;;;;17.13;8.32;;;;;;;3.74;100.00;100360.47;5149090;28;20037;-71
2023/12/09 02:35:37;;;;;;;18.13;7.53;;;;;;;3.60;100.00;100346.88;5163567;28;20156;-72
2023/12/09 02:38:09;;;;;;;20.00;7.78;;;;;;;3.52;100.00;100353.00;5164689;28;20034;-72
2023/12/09 02:40:41;;;;;;;20.70;7.85;;;;;;;3.45;100.00;100353.94;5168220;28;20096;-70
2023/12/09 02:43:15;;;;;;;19.27;7.47;;;;;;;3.47;100.00;100353.91;5165969;28;20126;-72
2023/12/09 02:45:45;;;;;;;16.35;7.43;;;;;;;3.35;100.00;100354.88;5166205;28;20041;-72
2023/12/09 02:48:16;;;;;;;18.50;7.60;;;;;;;3.30;100.00;100351.50;5155180;28;20022;-72
2023/12/09 02:50:46;;;;;;;18.52;8.00;;;;;;;3.26;100.00;100352.41;5163948;28;20026;-72
2023/12/09 02:53:16;;;;;;;19.63;7.30;;;;;;;3.26;100.00;100346.38;5166311;28;20018;-72
2023/12/09 02:55:47;;;;;;;17.67;8.05;;;;;;;3.22;100.00;100340.38;5166033;28;20128;-72
2023/12/09 02:58:17;;;;;;;14.90;7.30;;;;;;;3.29;100.00;100348.94;5167374;28;20065;-72
2023/12/09 03:00:47;;;;;;;18.98;7.65;;;;;;;3.32;100.00;100334.28;5163617;28;20574;-70
2023/12/09 03:03:18;;;;;;;15.73;8.00;;;;;;;3.31;100.00;100344.59;5166967;28;20517;-72
2023/12/09 03:05:48;;;;;;;17.00;7.75;;;;;;;3.27;100.00;100342.94;5165736;28;20411;-72
2023/12/09 03:08:18;;;;;;;16.50;7.68;;;;;;;3.28;100.00;100339.47;5168103;28;20053;-72
2023/12/09 03:10:48;;;;;;;16.40;7.50;;;;;;;3.26;100.00;100331.75;5164611;28;20088;-70
2023/12/09 03:13:19;;;;;;;15.88;7.35;;;;;;;3.27;100.00;100330.03;5168452;28;20034;-72
2023/12/09 03:15:49;;;;;;;16.80;7.75;;;;;;;3.36;100.00;100332.53;5164656;28;20027;-72
2023/12/09 03:18:19;;;;;;;18.08;7.80;;;;;;;3.42;100.00;100343.66;5166812;28;20034;-72
2023/12/09 03:20:50;;;;;;;18.40;7.90;;;;;;;3.35;100.00;100334.22;5165545;28;20580;-71
2023/12/09 03:23:20;;;;;;;18.48;8.15;;;;;;;3.34;100.00;100329.94;5169123;28;20026;-72
2023/12/09 03:25:50;;;;;;;18.35;8.02;;;;;;;3.35;100.00;100320.47;5165121;28;20072;-72
2023/12/09 03:28:20;;;;;;;21.85;8.38;;;;;;;3.35;100.00;100330.81;5168180;28;20140;-72
2023/12/09 03:30:51;;;;;;;19.65;8.45;;;;;;;3.34;100.00;100340.28;5164422;28;20146;-71
2023/12/09 03:33:21;;;;;;;19.00;8.38;;;;;;;3.41;100.00;100341.06;5168004;28;20126;-72
2023/12/09 03:35:51;;;;;;;20.17;8.73;;;;;;;3.34;100.00;100334.28;5166160;28;20443;-71
2023/12/09 03:38:21;;;;;;;22.52;8.55;;;;;;;3.20;100.00;100331.81;5167008;28;20056;-72
2023/12/09 03:40:52;;;;;;;16.90;7.55;;;;;;;3.16;100.00;100335.28;5154419;28;20058;-71
2023/12/09 03:43:22;;;;;;;16.52;8.25;;;;;;;3.16;100.00;100313.81;5166837;28;20592;-72
2023/12/09 03:45:52;;;;;;;21.60;8.52;;;;;;;3.00;100.00;100314.81;5163172;28;20031;-72
2023/12/09 03:48:22;;;;;;;18.08;8.18;;;;;;;3.02;100.00;100321.66;5167167;28;20018;-72
2023/12/09 03:50:53;;;;;;;18.45;8.13;;;;;;;2.92;100.00;100314.91;5149443;28;20566;-71
2023/12/09 03:53:23;;;;;;;16.05;7.07;;;;;;;3.09;100.00;100306.97;5165368;28;20084;-72
2023/12/09 03:55:53;;;;;;;18.20;7.72;;;;;;;2.86;100.00;100308.94;5165775;28;20495;-72
2023/12/09 03:58:24;;;;;;;15.13;6.70;;;;;;;2.75;100.00;100305.56;5168102;28;20069;-71
2023/12/09 04:00:54;;;;;;;16.85;7.53;;;;;;;2.75;100.00;100315.91;5166209;28;20125;-72
2023/12/09 04:03:27;;;;;;;17.65;7.22;;;;;;;2.71;100.00;100309.06;5167354;28;20041;-71
2023/12/09 04:05:57;;;;;;;18.08;7.18;;;;;;;2.77;100.00;100316.72;5167340;28;20030;-72
2023/12/09 04:08:27;;;;;;;14.23;6.65;;;;;;;2.81;100.00;100314.13;5153606;28;20049;-71
2023/12/09 04:10:58;;;;;;;13.18;6.57;;;;;;;2.85;100.00;100312.38;5159481;28;20321;-71
2023/12/09 04:13:28;;;;;;;15.40;7.45;;;;;;;2.88;100.00;100308.03;5152692;28;20025;-71
2023/12/09 04:16:00;;;;;;;13.15;6.53;;;;;;;2.96;100.00;100295.91;5157056;28;20631;-70
2023/12/09 04:18:30;;;;;;;16.70;7.13;;;;;;;3.06;100.00;100301.84;5162871;28;20361;-71
2023/12/09 04:21:00;;;;;;;15.48;6.68;;;;;;;3.07;100.00;100303.56;5165450;28;20109;-72
2023/12/09 04:23:30;;;;;;;17.27;8.15;;;;;;;3.03;100.00;100302.72;5167008;28;20033;-70
2023/12/09 04:26:01;;;;;;;17.58;8.02;;;;;;;3.09;100.00;100305.25;5167413;28;20113;-72
2023/12/09 04:28:31;;;;;;;20.48;8.13;;;;;;;3.13;100.00;100298.31;5165718;28;20029;-70
2023/12/09 04:31:01;;;;;;;18.83;8.18;;;;;;;3.00;100.00;100292.44;5162187;28;20033;-71
2023/12/09 04:33:32;;;;;;;18.67;7.78;;;;;;;3.15;100.00;100287.13;5167215;28;20155;-70
2023/12/09 04:36:03;;;;;;;17.65;7.68;;;;;;;3.23;100.00;100299.94;5163288;28;20307;-71
2023/12/09 04:38:34;;;;;;;20.83;8.35;;;;;;;3.25;100.00;100299.06;5167905;28;20053;-71
2023/12/09 04:41:04;;;;;;;23.35;9.10;;;;;;;3.28;100.00;100293.00;5166440;28;20431;-72
2023/12/09 04:43:35;;;;;;;26.33;9.95;;;;;;;3.13;100.00;100300.91;5166873;28;20029;-71
2023/12/09 04:46:05;;;;;;;20.75;8.98;;;;;;;3.29;100.00;100284.38;5165056;28;20026;-72
2023/12/09 04:48:35;;;;;;;22.42;9.55;;;;;;;3.24;100.00;100281.00;5168496;28;20258;-71
2023/12/09 04:51:05;;;;;;;19.95;8.57;;;;;;;3.13;100.00;100290.56;5154644;28;20052;-71
2023/12/09 04:53:36;;;;;;;24.75;10.40;;;;;;;3.25;100.00;100293.91;5163794;28;20029;-71
2023/12/09 04:56:07;;;;;;;26.88;10.98;;;;;;;3.20;100.00;100289.66;5165647;28;20588;-72
2023/12/09 04:58:37;;;;;;;22.08;9.63;;;;;;;3.18;100.00;100286.25;5167877;28;20471;-71
2023/12/09 05:01:08;;;;;;;18.38;8.55;;;;;;;3.17;100.00;100279.38;5165364;28;20113;-72
2023/12/09 05:03:38;;;;;;;20.77;8.63;;;;;;;3.18;100.00;100288.81;5168356;28;20460;-71
2023/12/09 05:06:09;;;;;;;21.13;9.05;;;;;;;3.20;100.00;100292.25;5166054;28;20592;-71
2023/12/09 05:08:42;;;;;;;21.25;9.00;;;;;;;3.27;100.00;100280.97;5162163;28;20032;-71
2023/12/09 05:11:12;;;;;;;23.17;9.15;;;;;;;3.32;100.00;100284.34;5166386;28;20038;-72
2023/12/09 05:13:42;;;;;;;22.58;9.85;;;;;;;3.27;100.00;100275.81;5167366;28;20029;-70
2023/12/09 05:16:13;;;;;;;22.98;9.63;;;;;;;3.18;100.00;100275.91;5166383;28;20030;-72
2023/12/09 05:18:43;;;;;;;25.10;9.88;;;;;;;3.23;100.00;100269.81;5166530;28;21449;-70
2023/12/09 05:21:13;;;;;;;20.92;10.00;;;;;;;3.24;100.00;100261.22;5165991;28;20030;-71
2023/12/09 05:23:44;;;;;;;21.85;10.65;;;;;;;3.34;100.00;100260.22;5167132;28;20042;-71
2023/12/09 05:26:25;;;;;;;23.38;9.60;;;;;;;3.12;100.00;100255.31;5163593;28;20377;-72
2023/12/09 05:28:56;;;;;;;18.75;9.15;;;;;;;3.13;100.00;100263.06;5154909;28;20499;-72
2023/12/09 05:31:27;;;;;;;24.02;10.15;;;;;;;3.09;100.00;100263.97;5166406;28;20216;-71
2023/12/09 05:33:57;;;;;;;23.63;9.98;;;;;;;2.97;100.00;100276.13;5166007;28;20053;-72
2023/12/09 05:36:27;;;;;;;23.13;9.98;;;;;;;3.04;100.00;100273.47;5167212;28;20112;-71
2023/12/09 05:38:57;;;;;;;25.10;9.57;;;;;;;3.16;100.00;100272.50;5166301;28;20138;-71
2023/12/09 05:41:28;;;;;;;20.02;9.25;;;;;;;3.08;100.00;100274.28;5166822;28;20563;-71
2023/12/09 05:43:58;;;;;;;24.00;9.90;;;;;;;3.06;100.00;100282.03;5165426;28;20529;-72
2023/12/09 05:46:28;;;;;;;26.20;10.35;;;;;;;3.12;100.00;100270.81;5165771;28;20171;-71
2023/12/09 05:48:59;;;;;;;19.48;9.23;;;;;;;3.19;100.00;100275.03;5165734;28;20423;-72
2023/12/09 05:51:29;;;;;;;19.67;9.05;;;;;;;3.26;100.00;100274.09;5165577;28;20034;-71
2023/12/09 05:53:59;;;;;;;21.25;9.88;;;;;;;3.23;100.00;100274.13;5166491;28;20022;-71
2023/12/09 05:56:29;;;;;;;21.90;9.55;;;;;;;3.26;100.00;100276.69;5168475;28;20033;-71
2023/12/09 05:59:00;;;;;;;20.50;9.80;;;;;;;3.11;100.00;100267.38;5165973;28;20045;-71
2023/12/09 06:01:30;;;;;;;21.63;9.13;;;;;;;3.01;100.00;100268.34;5166909;28;20128;-72
2023/12/09 06:04:00;;;;;;;18.17;8.15;;;;;;;3.02;100.00;100267.47;5165240;28;20322;-71
2023/12/09 06:06:31;;;;;;;22.63;8.30;;;;;;;2.96;100.00;100267.53;5166253;28;20658;-72
2023/12/09 06:09:01;;;;;;;20.30;8.30;;;;;;;3.01;100.00;100263.19;5164881;28;20670;-71
2023/12/09 06:11:31;;;;;;;17.73;7.75;;;;;;;2.93;100.00;100259.84;5155834;28;20052;-72
2023/12/09 06:14:03;;;;;;;19.73;8.63;;;;;;;2.85;100.00;100260.78;5164082;28;20500;-72
2023/12/09 06:16:33;;;;;;;17.48;8.50;;;;;;;2.87;100.00;100253.88;5155481;28;20116;-71
2023/12/09 06:19:04;;;;;;;22.23;8.23;;;;;;;2.87;100.00;100274.50;5165975;28;20117;-71
2023/12/09 06:21:34;;;;;;;21.05;7.95;;;;;;;2.90;100.00;100270.19;5168501;28;20029;-72
2023/12/09 06:24:05;;;;;;;18.60;7.78;;;;;;;2.88;100.00;100271.06;5165415;28;20022;-72
2023/12/09 06:26:44;;;;;;;16.38;7.65;;;;;;;2.89;100.00;100277.94;5168079;28;20041;-72
2023/12/09 06:29:14;;;;;;;16.52;7.57;;;;;;;2.86;100.00;100272.81;5166041;28;20062;-72
2023/12/09 06:31:44;;;;;;;17.08;7.57;;;;;;;3.01;100.00;100273.50;5162819;28;20050;-71
2023/12/09 06:34:15;;;;;;;15.60;7.13;;;;;;;3.03;100.00;100271.75;5164519;28;20038;-71
2023/12/09 06:36:46;;;;;;;15.93;7.35;;;;;;;3.01;100.00;100262.34;5159719;28;20045;-71
2023/12/09 06:39:17;;;;;;;20.38;7.35;;;;;;;2.91;100.00;100268.44;5153769;28;20033;-71
2023/12/09 06:41:48;;;;;;;14.90;6.88;;;;;;;2.97;100.00;100265.78;5151368;28;20018;-71
2023/12/09 06:44:18;;;;;;;15.65;7.05;;;;;;;3.03;100.00;100258.00;5163485;28;20030;-72
2023/12/09 06:46:49;;;;;;;16.70;7.15;;;;;;;3.08;100.00;100258.81;5163925;28;20262;-71
2023/12/09 06:49:19;;;;;;;17.67;7.57;;;;;;;2.99;100.00;100257.19;5165996;28;20029;-71
2023/12/09 06:51:49;;;;;;;17.88;7.10;;;;;;;2.90;100.00;100259.00;5162598;28;20399;-71
2023/12/09 06:54:20;;;;;;;13.80;6.82;;;;;;;2.80;100.00;100260.81;5166029;28;20033;-71
2023/12/09 06:56:51;;;;;;;13.52;6.13;;;;;;;2.75;100.00;100256.56;5163642;28;20042;-71
2023/12/09 06:59:22;;;;;;;15.23;6.38;;;;;;;2.70;100.00;100251.44;5162935;28;20084;-72
2023/12/09 07:01:56;;;;;;;13.52;6.75;;;;;;;2.68;100.00;100260.91;5183637;22;20050;-75
2023/12/09 07:04:26;;;;;;;17.42;6.82;;;;;;;2.70;100.00;100266.06;5170268;28;20087;-76
2023/12/09 07:07:00;;;;;;;17.95;6.97;;;;;;;2.72;100.00;100264.34;5170563;28;20026;-75
2023/12/09 07:09:31;;;;;;;16.98;6.20;;;;;;;2.72;100.00;100274.66;5171562;28;20111;-76
2023/12/09 07:12:01;;;;;;;18.85;6.82;;;;;;;2.71;100.00;100265.22;5183840;28;20033;-76
2023/12/09 07:14:31;;;;;;;16.33;6.43;;;;;;;2.65;100.00;100265.28;5163864;28;20171;-75
2023/12/09 07:17:02;;;;;;;16.85;7.00;;;;;;;2.58;100.00;100269.63;5188346;28;20034;-76
2023/12/09 07:19:32;;;;;;;18.52;7.60;;;;;;;2.50;100.00;100267.97;5187911;28;20526;-76
2023/12/09 07:22:03;;;;;;;16.15;6.85;;;;;;;2.57;100.00;100269.63;5192934;28;20118;-76
2023/12/09 07:24:33;;;;;;;16.15;6.80;;;;;;;2.46;100.00;100271.44;5190977;28;20044;-76
2023/12/09 07:27:04;;;;;;;17.08;7.45;;;;;;;2.49;100.00;100272.25;5190753;28;20389;-76
2023/12/09 07:29:34;;;;;;;17.20;7.50;;;;;;;2.53;100.00;100278.25;5190482;28;20017;-76
2023/12/09 07:32:05;;;;;;;21.75;7.55;;;;;;;2.46;100.00;100276.59;5188316;28;20112;-76
2023/12/09 07:34:35;;;;;;;17.63;7.50;;;;;;;2.45;100.00;100269.72;5192745;28;20029;-76
2023/12/09 07:37:05;;;;;;;21.35;7.38;;;;;;;2.37;100.00;100266.34;5180220;28;20072;-76
2023/12/09 07:39:36;;;;;;;17.20;7.38;;;;;;;2.47;100.00;100268.00;5181864;28;20021;-76
2023/12/09 07:42:06;;;;;;;15.23;7.22;;;;;;;2.44;100.00;100274.03;5188240;28;20095;-75
2023/12/09 07:44:37;;;;;;;15.23;7.00;;;;;;;2.46;100.00;100274.00;5180844;28;20080;-74
2023/12/09 07:47:07;;;;;;;14.80;7.20;;;;;;;2.42;100.00;100269.75;5168993;28;20044;-71
2023/12/09 07:49:37;;;;;;;16.83;7.40;;;;;;;2.49;100.00;100274.00;5191212;28;20034;-76
2023/12/09 07:52:07;;;;;;;13.82;6.40;;;;;;;2.48;100.00;100261.97;5189023;28;20040;-75
2023/12/09 07:54:38;;;;;;;14.88;7.07;;;;;;;2.56;100.00;100273.94;5189197;28;20084;-76
2023/12/09 07:57:08;;;;;;;16.75;7.03;;;;;;;2.85;100.00;100266.78;5185393;28;20510;-76
2023/12/09 07:59:38;;;;;;;13.80;6.15;;;;;;;2.88;100.00;100265.91;5186294;28;20098;-76
2023/12/09 08:02:09;;;;;;;13.98;6.07;;;;;;;2.73;100.00;100263.47;5174375;28;20259;-76
2023/12/09 08:04:39;;;;;;;12.10;5.82;;;;;;;2.53;100.00;100255.91;5184140;28;20037;-75
2023/12/09 08:07:09;;;;;;;14.05;6.28;;;;;;;2.71;100.00;100257.47;5178918;28;20022;-77
2023/12/09 08:09:40;;;;;;;17.70;6.47;;;;;;;2.74;100.00;100252.28;5181032;28;20072;-76
2023/12/09 08:12:10;;;;;;;13.60;5.90;;;;;;;2.78;100.00;100249.66;5176770;28;20075;-76
2023/12/09 08:14:40;;;;;;;13.85;6.22;;;;;;;2.78;100.00;100252.25;5162030;28;20309;-76
2023/12/09 08:17:11;;;;;;;14.95;6.38;;;;;;;2.79;100.00;100246.22;5176696;28;20044;-76
2023/12/09 08:19:41;;;;;;;16.70;6.63;;;;;;;2.87;100.00;100246.97;5178499;28;20428;-73
2023/12/09 08:22:12;;;;;;;14.25;5.80;;;;;;;3.24;100.00;100242.28;5172287;28;20064;-76
2023/12/09 08:24:42;;;;;;;11.13;4.80;;;;;;;3.66;100.00;100220.22;5187305;28;20510;-76
2023/12/09 08:27:12;;;;;;;11.10;4.32;;;;;;;4.45;100.00;100215.53;5178820;28;20469;-77
2023/12/09 08:29:43;;;;;;;10.55;3.15;;;;;;;5.31;100.00;100201.81;5167736;28;20498;-77
2023/12/09 08:32:13;;;;;;;9.57;2.70;;;;;;;5.48;100.00;100198.00;5183710;28;20025;-77
2023/12/09 08:34:43;;;;;;;10.70;4.05;;;;;;;5.08;100.00;100204.00;5177832;28;20053;-77
2023/12/09 08:37:14;;;;;;;9.27;4.18;;;;;;;4.68;100.00;100203.06;5186226;28;20439;-77
2023/12/09 08:39:44;;;;;;;10.63;3.53;;;;;;;4.62;100.00;100204.91;5186412;28;20120;-77
2023/12/09 08:42:15;;;;;;;10.65;3.30;;;;;;;4.84;100.00;100201.88;5182176;28;20022;-76
2023/12/09 08:44:45;;;;;;;7.80;3.08;;;;;;;4.75;100.00;100198.59;5182950;28;20696;-74
2023/12/09 08:47:15;;;;;;;11.80;3.50;;;;;;;4.72;100.00;100198.66;5185411;28;20030;-77
2023/12/09 08:49:46;;;;;;;9.40;2.97;;;;;;;4.82;100.00;100201.06;5175298;28;20037;-73
2023/12/09 08:52:18;;;;;;;6.68;2.30;;;;;;;4.91;100.00;100206.06;5176238;28;20022;-77
2023/12/09 08:54:48;;;;;;;8.85;2.70;;;;;;;4.86;100.00;100202.72;5178275;28;20030;-73
2023/12/09 08:57:18;;;;;;;9.40;2.60;;;;;;;4.85;100.00;100202.75;5187223;28;20037;-77
2023/12/09 08:59:50;;;;;;;6.53;2.22;;;;;;;4.89;100.00;100196.63;5186173;28;20459;-74
2023/12/09 09:02:21;;;;;;;3.85;2.03;;;;;;;4.98;100.00;100205.06;5185344;28;20605;-77
2023/12/09 09:04:51;;;;;;;6.15;1.90;;;;;;;5.12;100.00;100200.47;5167943;28;20640;-74
2023/12/09 09:07:22;;;;;;;8.02;2.13;;;;;;;5.11;100.00;100206.53;5185402;28;20038;-77
2023/12/09 09:09:52;;;;;;;6.95;2.42;;;;;;;5.11;100.00;100209.13;5184337;28;20488;-74
2023/12/09 09:12:22;;;;;;;10.07;2.45;;;;;;;5.18;100.00;100204.69;5182182;28;20038;-76
2023/12/09 09:14:53;;;;;;;5.50;1.90;;;;;;;5.22;100.00;100202.00;5183178;28;20211;-73
2023/12/09 09:17:23;;;;;;;7.72;2.20;;;;;;;5.27;100.00;100204.47;5173094;28;20049;-77
2023/12/09 09:19:54;;;;;;;7.78;1.90;;;;;;;5.35;100.00;100203.44;5161974;28;20044;-74
2023/12/09 09:22:24;;;;;;;7.30;2.50;;;;;;;5.43;100.00;100197.22;5162089;28;20038;-73
2023/12/09 09:24:55;;;;;;;9.32;2.17;;;;;;;5.51;100.00;100184.97;5181474;28;20041;-75
2023/12/09 09:27:25;;;;;;;4.30;1.70;;;;;;;5.76;100.00;100180.09;5182422;28;20147;-73
2023/12/09 09:29:55;;;;;;;5.63;1.80;;;;;;;5.81;100.00;100183.47;5167489;28;20033;-73
2023/12/09 09:32:27;;;;;;;7.55;1.80;;;;;;;5.90;100.00;100184.09;5183769;28;20033;-74
2023/12/09 09:34:57;;;;;;;7.00;2.30;;;;;;;5.88;100.00;100177.28;5154823;28;20025;-74
2023/12/09 09:37:28;;;;;;;5.60;2.25;;;;;;;5.84;100.00;100175.59;5180482;28;20052;-76
2023/12/09 09:39:58;;;;;;;6.28;2.05;;;;;;;5.90;100.00;100170.31;5177382;28;20033;-76
2023/12/09 09:42:51;;;;;;;6.70;2.30;;;;;;;6.04;100.00;100155.25;5182301;28;20060;-77
2023/12/09 09:45:23;;;;;;;9.25;2.38;;;;;;;6.11;100.00;100162.00;5154430;28;20044;-73
2023/12/09 09:47:55;;;;;;;5.20;2.33;;;;;;;6.09;100.00;100153.41;5185462;28;20402;-74
2023/12/09 09:50:26;;;;;;;8.90;2.55;;;;;;;6.20;100.00;100147.06;5186406;28;20499;-73
2023/12/09 09:52:58;;;;;;;5.90;2.08;;;;;;;6.25;100.00;100155.56;5183041;28;20427;-74
2023/12/09 09:55:29;;;;;;;5.85;2.53;;;;;;;6.28;100.00;100142.53;5183135;28;20033;-77
2023/12/09 09:57:59;;;;;;;7.57;2.60;;;;;;;6.35;100.00;100141.50;5180960;28;20034;-76
2023/12/09 10:00:30;;;;;;;7.30;2.80;;;;;;;6.25;100.00;100134.00;5182840;28;20034;-76
2023/12/09 10:03:00;;;;;;;8.52;2.70;;;;;;;6.32;100.00;100132.94;5168470;28;20033;-77
2023/12/09 10:05:31;;;;;;;5.47;2.22;;;;;;;6.41;100.00;100125.75;5184099;28;20153;-77
2023/12/09 10:08:01;;;;;;;6.72;2.63;;;;;;;6.50;100.00;100124.66;5184269;28;20488;-76
2023/12/09 10:10:33;;;;;;;7.57;2.53;;;;;;;6.50;100.00;100127.25;5182171;28;20242;-77
2023/12/09 10:13:04;;;;;;;6.68;2.80;;;;;;;6.59;100.00;100124.44;5163989;28;20028;-77
2023/12/09 10:15:34;;;;;;;8.43;2.55;;;;;;;6.52;100.00;100120.28;5183460;28;20034;-77
2023/12/09 10:18:05;;;;;;;7.63;2.38;;;;;;;6.63;100.00;100126.06;5183031;28;20033;-74
2023/12/09 10:20:35;;;;;;;7.15;2.25;;;;;;;6.59;100.00;100119.25;5169613;28;20081;-77
2023/12/09 10:23:07;;;;;;;8.27;2.45;;;;;;;6.50;100.00;100124.66;5174995;28;20037;-77
2023/12/09 10:25:39;;;;;;;11.50;2.40;;;;;;;6.57;100.00;100121.88;5173064;28;20056;-76
2023/12/09 10:28:10;;;;;;;6.72;1.98;;;;;;;6.53;100.00;100112.47;5186669;28;20095;-77
2023/12/09 10:30:41;;;;;;;6.43;2.20;;;;;;;6.47;100.00;100099.66;5180305;28;20137;-77
2023/12/09 10:33:12;;;;;;;6.32;2.50;;;;;;;6.40;100.00;100089.47;5155842;28;20183;-73
2023/12/09 10:35:43;;;;;;;6.90;2.28;;;;;;;6.41;100.00;100091.19;5179054;28;20045;-73
2023/12/09 10:38:16;;;;;;;5.45;2.20;;;;;;;6.29;100.00;100079.34;5166964;28;20021;-77
2023/12/09 10:40:46;;;;;;;5.78;2.30;;;;;;;6.28;100.00;100074.22;5179617;28;20053;-74
2023/12/09 10:43:17;;;;;;;11.65;3.35;;;;;;;6.38;100.00;100062.69;5168387;28;20092;-76
2023/12/09 10:45:47;;;;;;;5.93;2.33;;;;;;;6.24;100.00;100064.84;5186395;28;20532;-76
2023/12/09 10:48:18;;;;;;;6.30;2.30;;;;;;;6.14;100.00;100073.72;5181656;28;20018;-76
2023/12/09 10:50:48;;;;;;;5.32;2.47;;;;;;;5.93;100.00;100061.31;5181188;28;20049;-74
2023/12/09 10:53:18;;;;;;;7.18;2.85;;;;;;;5.94;100.00;100068.22;5176585;28;20445;-73
2023/12/09 10:55:49;;;;;;;8.55;2.40;;;;;;;5.94;100.00;100061.25;5185904;28;20037;-75
2023/12/09 10:58:20;;;;;;;7.28;2.60;;;;;;;6.00;100.00;100063.72;5167746;28;20033;-77
2023/12/09 11:00:51;;;;;;;8.68;2.40;;;;;;;6.08;100.00;100064.34;5185553;28;20118;-74
2023/12/09 11:03:23;;;;;;;7.03;2.00;;;;;;;6.19;100.00;100043.31;5187586;28;20523;-76
2023/12/09 11:05:57;;;;;;;4.50;2.10;;;;;;;6.38;100.00;100050.59;5170264;28;20033;-74
2023/12/09 11:08:28;;;;;;;6.88;1.95;;;;;;;6.50;100.00;100036.41;5184316;28;20100;-76
2023/12/09 11:11:03;;;;;;;5.78;1.55;;;;;;;6.73;100.00;100024.50;5179157;28;20331;-75
2023/12/09 11:13:34;;;;;;;3.25;1.25;;;;;;;6.92;100.00;100019.63;5185365;28;20039;-75
2023/12/09 11:16:12;;;;;;;5.10;1.38;;;;;;;7.04;100.00;100012.31;5166092;28;20022;-76
2023/12/09 11:18:53;;;;;;;3.80;1.40;;;;;;;7.06;100.00;99997.53;5184625;28;20026;-76
2023/12/09 11:21:26;;;;;;;7.30;1.65;;;;;;;6.84;100.00;99991.28;5176589;28;20048;-73
2023/12/09 11:23:58;;;;;;;5.18;1.50;;;;;;;6.80;100.00;99983.63;5177980;28;20053;-73
2023/12/09 11:26:30;;;;;;;4.32;1.77;;;;;;;6.75;100.00;99977.72;5187354;28;20038;-77
2023/12/09 11:29:03;;;;;;;5.07;1.55;;;;;;;6.75;100.00;99985.50;5187068;28;20059;-76
2023/12/09 11:31:40;;;;;;;4.50;1.50;;;;;;;6.72;100.00;99985.56;5185907;28;20058;-74
2023/12/09 11:34:13;;;;;;;5.25;1.50;;;;;;;6.57;100.00;99976.50;5168826;28;20491;-76